Terminal Aerodrome Forecast
Issued by NWS Duluth, MN

Home | Current Version | Previous Version | Text Only | Print | Product List | Glossary On
Versions: 1 2 3 4 5 6 7 8 9 10 11 12 13 14 15 16 17 18 19 20 21 22 23 24
656
FTUS43 KDLH 191736
TAFDLH
TAF
KDLH 191736Z 1918/2018 23011KT P6SM FEW250
     FM192000 22010G17KT P6SM FEW250
     FM200100 21010KT P6SM FEW250
     FM200400 20009KT P6SM FEW250 WS020/22040KT
     FM200800 20008KT P6SM FEW250
     FM201600 18012KT P6SM SCT250=

USA.gov is the U.S. government's official web portal to all federal, state and local government web resources and services.